Time;durP1;ratioP1;P1;durP2;ratioP2;P2;SDS_P1;SDS_P2;PMS_P1;PMS_P2;Temp;Humidity;BMP_temperature;BMP_pressure;BME280_temperature;BME280_humidity;BME280_pressure;Samples;Min_cycle;Max_cycle;Signal;HPM_P1;HPM_P2
2022/07/23 00:00:17;;;;;;;5.23;4.83;;;18.60;99.90;;;;;;5215534;28;20266;-50
2022/07/23 00:02:48;;;;;;;5.70;5.20;;;18.50;99.90;;;;;;5205083;28;20229;-50
2022/07/23 00:05:19;;;;;;;7.40;6.20;;;18.50;99.90;;;;;;5212528;28;20434;-50
2022/07/23 00:07:49;;;;;;;6.03;5.23;;;18.40;99.90;;;;;;5221394;28;20213;-51
2022/07/23 00:10:20;;;;;;;9.63;5.37;;;18.40;99.90;;;;;;5208765;28;20210;-50
2022/07/23 00:12:50;;;;;;;13.03;4.73;;;18.40;99.90;;;;;;5215510;28;20214;-50
2022/07/23 00:15:21;;;;;;;8.50;5.50;;;18.40;99.90;;;;;;5184503;28;20199;-50
2022/07/23 00:17:52;;;;;;;7.60;5.23;;;18.30;99.90;;;;;;5221589;28;20221;-51
2022/07/23 00:20:22;;;;;;;4.63;4.20;;;18.30;99.90;;;;;;5198128;28;20520;-49
2022/07/23 00:22:55;;;;;;;7.20;6.50;;;18.30;99.90;;;;;;5213751;28;20295;-49
2022/07/23 00:25:26;;;;;;;5.07;4.73;;;18.30;99.90;;;;;;5199711;28;20210;-50
2022/07/23 00:28:01;;;;;;;7.70;5.30;;;18.30;99.90;;;;;;5211082;28;20797;-51
2022/07/23 00:30:32;;;;;;;5.63;5.03;;;18.30;99.90;;;;;;5206234;28;21001;-50
2022/07/23 00:33:06;;;;;;;6.13;4.70;;;18.40;99.90;;;;;;5224680;28;20464;-51
2022/07/23 00:35:40;;;;;;;6.80;5.27;;;18.50;99.90;;;;;;5205316;28;20477;-50
2022/07/23 00:38:11;;;;;;;10.43;7.17;;;18.40;99.90;;;;;;5193630;28;20469;-50
2022/07/23 00:40:42;;;;;;;6.70;5.00;;;18.40;99.90;;;;;;5201040;28;20464;-51
2022/07/23 00:43:12;;;;;;;8.27;5.17;;;18.30;99.90;;;;;;5198318;28;20533;-50
2022/07/23 00:45:43;;;;;;;10.23;5.40;;;18.30;99.90;;;;;;5204007;28;20183;-50
2022/07/23 00:48:13;;;;;;;6.63;5.00;;;18.30;99.90;;;;;;5227058;28;20214;-49
2022/07/23 00:50:44;;;;;;;6.90;5.47;;;18.30;99.90;;;;;;5219525;28;20205;-50
2022/07/23 00:53:15;;;;;;;6.20;4.90;;;18.20;99.90;;;;;;5220251;28;20211;-50
2022/07/23 00:55:47;;;;;;;11.43;5.60;;;18.20;99.90;;;;;;5209101;28;20185;-49
2022/07/23 00:58:18;;;;;;;5.23;4.77;;;18.20;99.90;;;;;;5215710;28;20460;-50
2022/07/23 01:00:49;;;;;;;5.83;5.33;;;18.20;99.90;;;;;;5216732;28;20924;-51
2022/07/23 01:03:19;;;;;;;5.93;5.00;;;18.20;99.90;;;;;;5217766;28;20472;-50
2022/07/23 01:05:50;;;;;;;7.73;5.23;;;18.10;99.90;;;;;;5218393;28;20222;-52
2022/07/23 01:08:21;;;;;;;6.40;5.30;;;18.10;99.90;;;;;;5201495;28;20206;-49
2022/07/23 01:10:51;;;;;;;6.23;5.70;;;18.10;99.90;;;;;;5185585;28;20187;-51
2022/07/23 01:13:22;;;;;;;6.03;5.07;;;18.00;99.90;;;;;;5203636;28;20215;-52
2022/07/23 01:15:52;;;;;;;6.13;5.53;;;18.00;99.90;;;;;;5209758;28;20311;-50
2022/07/23 01:18:23;;;;;;;6.33;5.60;;;18.00;99.90;;;;;;5213788;28;20543;-49
2022/07/23 01:20:53;;;;;;;10.37;5.43;;;18.00;99.90;;;;;;5204290;28;20286;-51
2022/07/23 01:23:24;;;;;;;10.23;5.50;;;17.90;99.90;;;;;;5214684;28;20249;-51
2022/07/23 01:25:55;;;;;;;9.37;6.20;;;17.90;99.90;;;;;;5219680;28;20194;-50
2022/07/23 01:28:26;;;;;;;5.73;5.10;;;17.80;99.90;;;;;;5192155;28;20725;-50
2022/07/23 01:30:56;;;;;;;5.23;4.87;;;17.70;99.90;;;;;;5198231;28;20654;-50
2022/07/23 01:33:27;;;;;;;8.30;5.30;;;17.70;99.90;;;;;;5222808;28;20276;-50
2022/07/23 01:35:57;;;;;;;6.57;5.70;;;17.70;99.90;;;;;;5205900;28;20201;-51
2022/07/23 01:38:28;;;;;;;5.93;5.00;;;17.70;99.90;;;;;;5201883;28;20314;-51
2022/07/23 01:40:58;;;;;;;7.07;6.37;;;17.60;99.90;;;;;;5219460;28;20199;-51
2022/07/23 01:43:29;;;;;;;7.13;5.40;;;17.50;99.90;;;;;;5211141;28;20202;-50
2022/07/23 01:45:59;;;;;;;12.10;5.17;;;17.50;99.90;;;;;;5218870;28;20195;-49
2022/07/23 01:48:30;;;;;;;6.13;5.47;;;17.50;99.90;;;;;;5193261;28;20261;-50
2022/07/23 01:51:01;;;;;;;6.40;5.40;;;17.50;99.90;;;;;;5186228;28;20189;-49
2022/07/23 01:57:08;;;;;;;7.87;5.10;;;17.50;99.90;;;;;;5426682;22;20485;-46
2022/07/23 01:59:39;;;;;;;6.30;5.70;;;17.40;99.90;;;;;;5200721;28;20480;-46
2022/07/23 02:02:10;;;;;;;5.97;5.43;;;17.30;99.90;;;;;;5215930;28;20474;-45
2022/07/23 02:04:40;;;;;;;7.97;6.00;;;17.30;99.90;;;;;;5219876;28;20736;-50
2022/07/23 02:07:11;;;;;;;7.83;6.10;;;17.30;99.90;;;;;;5217081;28;20183;-46
2022/07/23 02:09:41;;;;;;;7.03;5.13;;;17.30;99.90;;;;;;5213633;28;20226;-45
2022/07/23 02:12:12;;;;;;;15.90;5.50;;;17.30;99.90;;;;;;5216827;28;20207;-45
2022/07/23 02:14:43;;;;;;;6.40;4.60;;;17.40;99.90;;;;;;5202349;28;20199;-45
2022/07/23 02:17:13;;;;;;;6.60;5.40;;;17.40;99.90;;;;;;5188047;28;20167;-46
2022/07/23 02:19:44;;;;;;;6.37;5.87;;;17.50;99.90;;;;;;5225196;28;20179;-46
2022/07/23 02:22:14;;;;;;;6.90;5.23;;;17.40;99.90;;;;;;5219070;28;20190;-46
2022/07/23 02:24:45;;;;;;;12.90;5.50;;;17.40;99.90;;;;;;5204557;28;20214;-45
2022/07/23 02:27:16;;;;;;;5.60;5.10;;;17.40;99.90;;;;;;5196482;28;20180;-46
2022/07/23 02:29:46;;;;;;;7.97;5.20;;;17.40;99.90;;;;;;5221280;28;20599;-45
2022/07/23 02:32:17;;;;;;;6.13;4.80;;;17.40;99.90;;;;;;5218915;28;20207;-45
2022/07/23 02:34:48;;;;;;;6.97;5.63;;;17.30;99.90;;;;;;5211944;28;20199;-46
2022/07/23 02:37:18;;;;;;;5.80;5.20;;;17.30;99.90;;;;;;5200250;28;20313;-45
2022/07/23 02:39:50;;;;;;;9.13;5.60;;;17.20;99.90;;;;;;5216250;28;20591;-45
2022/07/23 02:42:20;;;;;;;11.93;5.90;;;17.20;99.90;;;;;;5201958;28;20238;-45
2022/07/23 02:44:51;;;;;;;8.60;5.87;;;17.20;99.90;;;;;;5214226;28;20878;-51
2022/07/23 02:47:22;;;;;;;5.40;4.90;;;17.20;99.90;;;;;;5219333;28;20211;-46
2022/07/23 02:49:53;;;;;;;13.40;5.37;;;17.10;99.90;;;;;;5214712;28;20579;-45
2022/07/23 02:52:23;;;;;;;6.60;4.80;;;17.10;99.90;;;;;;5182977;28;20218;-45
2022/07/23 02:54:54;;;;;;;6.40;4.70;;;17.00;99.90;;;;;;5195900;28;20205;-46
2022/07/23 02:57:24;;;;;;;8.90;5.70;;;17.00;99.90;;;;;;5202685;28;20193;-46
2022/07/23 02:59:55;;;;;;;5.33;4.83;;;16.90;99.90;;;;;;5210327;28;20196;-45
2022/07/23 03:02:26;;;;;;;8.30;4.77;;;16.90;99.90;;;;;;5221146;28;20607;-45
2022/07/23 03:04:56;;;;;;;9.10;5.70;;;16.80;99.90;;;;;;5217104;28;20326;-46
2022/07/23 03:07:27;;;;;;;6.00;5.50;;;16.80;99.90;;;;;;5194026;28;20345;-45
2022/07/23 03:09:57;;;;;;;4.30;3.93;;;16.70;99.90;;;;;;5203083;28;20191;-47
2022/07/23 03:12:28;;;;;;;4.90;4.60;;;16.70;99.90;;;;;;5210086;28;20353;-47
2022/07/23 03:14:58;;;;;;;6.63;4.90;;;16.70;99.90;;;;;;5202162;28;20206;-45
2022/07/23 03:17:29;;;;;;;5.37;4.23;;;16.70;99.90;;;;;;5203749;28;20187;-45
2022/07/23 03:19:59;;;;;;;5.07;4.37;;;16.70;99.90;;;;;;5215629;28;20187;-45
2022/07/23 03:22:30;;;;;;;5.30;4.30;;;16.70;99.90;;;;;;5206252;28;20278;-45
2022/07/23 03:25:01;;;;;;;10.23;4.57;;;16.60;99.90;;;;;;5192033;28;20568;-48
2022/07/23 03:27:31;;;;;;;4.80;4.40;;;16.50;99.90;;;;;;5223262;28;20186;-45
2022/07/23 03:30:02;;;;;;;5.43;4.83;;;16.60;99.90;;;;;;5212070;28;20727;-45
2022/07/23 03:32:33;;;;;;;6.87;4.60;;;16.50;99.90;;;;;;5220947;28;20203;-46
2022/07/23 03:35:05;;;;;;;6.43;5.03;;;16.50;99.90;;;;;;5199690;28;20946;-46
2022/07/23 03:37:35;;;;;;;14.33;4.67;;;16.60;99.90;;;;;;5224628;28;20277;-47
2022/07/23 03:40:07;;;;;;;4.63;4.23;;;16.50;99.90;;;;;;5217966;28;20437;-47
2022/07/23 03:42:39;;;;;;;8.33;4.93;;;16.50;99.90;;;;;;5211118;28;20198;-46
2022/07/23 03:45:10;;;;;;;6.17;4.23;;;16.60;99.90;;;;;;5217681;28;20464;-47
2022/07/23 03:47:41;;;;;;;8.57;5.03;;;16.60;99.90;;;;;;5205540;28;20441;-46
2022/07/23 03:50:11;;;;;;;4.83;4.37;;;16.60;99.90;;;;;;5208790;28;20663;-44
2022/07/23 03:52:42;;;;;;;5.30;4.30;;;16.60;99.90;;;;;;5218903;28;20520;-46
2022/07/23 03:55:13;;;;;;;4.90;4.50;;;16.50;99.90;;;;;;5200328;28;20257;-46
2022/07/23 03:57:44;;;;;;;5.70;4.50;;;16.60;99.90;;;;;;5213135;28;20183;-46
2022/07/23 04:00:14;;;;;;;5.80;4.30;;;16.60;99.90;;;;;;5215212;28;20183;-46
2022/07/23 04:02:45;;;;;;;4.30;3.20;;;16.60;99.90;;;;;;5201140;28;20176;-48
2022/07/23 04:05:16;;;;;;;5.93;3.50;;;16.50;99.90;;;;;;5210165;28;20294;-49
2022/07/23 04:07:46;;;;;;;6.53;3.23;;;16.50;99.90;;;;;;5216272;28;20257;-46
2022/07/23 04:10:17;;;;;;;8.10;3.50;;;16.50;99.90;;;;;;5203705;28;20184;-45
2022/07/23 04:12:48;;;;;;;14.50;3.50;;;16.60;99.90;;;;;;5201133;28;20207;-44
2022/07/23 04:15:18;;;;;;;7.57;3.30;;;16.70;99.90;;;;;;5201002;28;20239;-47
2022/07/23 04:17:49;;;;;;;3.50;3.30;;;16.70;99.90;;;;;;5220654;28;20610;-45
2022/07/23 04:20:19;;;;;;;4.43;3.13;;;16.70;99.90;;;;;;5202705;28;20179;-47
2022/07/23 04:22:50;;;;;;;7.50;2.80;;;16.70;99.90;;;;;;5225515;28;20187;-47
2022/07/23 04:25:21;;;;;;;6.50;2.83;;;16.70;99.90;;;;;;5208065;28;20865;-48
2022/07/23 04:27:51;;;;;;;3.97;2.60;;;16.60;99.90;;;;;;5216350;28;20194;-47
2022/07/23 04:30:22;;;;;;;6.30;2.73;;;16.60;99.90;;;;;;5203079;28;20277;-47
2022/07/23 04:32:52;;;;;;;3.77;2.77;;;16.50;99.90;;;;;;5214457;28;20659;-47
2022/07/23 04:35:23;;;;;;;3.60;3.30;;;16.70;99.90;;;;;;5197112;28;20203;-49
2022/07/23 04:37:54;;;;;;;5.70;2.50;;;16.80;99.90;;;;;;5210327;28;20183;-48
2022/07/23 04:40:24;;;;;;;5.23;2.90;;;16.80;99.90;;;;;;5190035;28;20667;-47
2022/07/23 04:42:55;;;;;;;2.80;2.60;;;16.60;99.90;;;;;;5212670;28;20236;-46
2022/07/23 04:45:26;;;;;;;5.47;2.67;;;16.20;99.90;;;;;;5202693;28;20243;-46
2022/07/23 04:47:57;;;;;;;3.73;3.50;;;15.70;99.90;;;;;;5204053;28;20434;-47
2022/07/23 04:50:28;;;;;;;6.43;4.00;;;15.40;99.90;;;;;;5213264;28;20526;-47
2022/07/23 04:52:59;;;;;;;7.50;4.17;;;15.10;99.90;;;;;;5218762;28;20523;-47
2022/07/23 04:55:30;;;;;;;8.03;4.30;;;15.00;99.90;;;;;;5202176;28;20254;-47
2022/07/23 04:58:00;;;;;;;9.07;4.10;;;14.80;99.90;;;;;;5210536;28;20280;-47
2022/07/23 05:00:31;;;;;;;10.50;4.83;;;14.60;99.90;;;;;;5215564;28;20190;-46
2022/07/23 05:03:01;;;;;;;8.43;5.57;;;14.40;99.90;;;;;;5209113;28;20187;-47
2022/07/23 05:05:32;;;;;;;5.27;4.77;;;14.40;99.90;;;;;;5215584;28;20238;-46
2022/07/23 05:08:03;;;;;;;5.80;4.13;;;14.30;99.90;;;;;;5186788;28;20187;-46
2022/07/23 05:10:34;;;;;;;11.33;6.37;;;14.30;99.90;;;;;;5183394;28;20639;-47
2022/07/23 05:13:04;;;;;;;6.50;5.50;;;14.30;99.90;;;;;;5202581;28;20194;-46
2022/07/23 05:15:35;;;;;;;8.80;5.13;;;14.20;99.90;;;;;;5215340;28;20318;-47
2022/07/23 05:18:05;;;;;;;5.93;5.37;;;14.20;99.90;;;;;;5204533;28;20201;-47
2022/07/23 05:20:36;;;;;;;8.30;5.70;;;14.20;99.90;;;;;;5217618;28;20179;-47
2022/07/23 05:23:07;;;;;;;12.30;5.70;;;14.00;99.90;;;;;;5205976;28;20186;-47
2022/07/23 05:25:39;;;;;;;13.17;6.90;;;14.10;99.90;;;;;;5209076;28;20468;-46
2022/07/23 05:28:10;;;;;;;14.57;6.40;;;14.20;99.90;;;;;;5202319;28;20751;-48
2022/07/23 05:30:40;;;;;;;12.80;7.70;;;14.10;99.90;;;;;;5214070;28;20422;-48
2022/07/23 05:33:11;;;;;;;19.40;7.27;;;14.00;99.90;;;;;;5209712;28;20674;-47
2022/07/23 05:35:41;;;;;;;8.30;7.47;;;13.90;99.90;;;;;;5207176;28;20199;-47
2022/07/23 05:38:12;;;;;;;19.50;7.90;;;13.90;99.90;;;;;;5199925;28;20248;-49
2022/07/23 05:40:43;;;;;;;13.23;8.30;;;13.90;99.90;;;;;;5197716;28;20175;-48
2022/07/23 05:43:13;;;;;;;13.33;8.87;;;13.80;99.90;;;;;;5218146;28;20263;-49
2022/07/23 05:45:44;;;;;;;22.00;11.50;;;13.80;99.90;;;;;;5198511;28;20194;-47
2022/07/23 05:48:14;;;;;;;16.53;9.17;;;13.80;99.90;;;;;;5220189;28;20207;-47
2022/07/23 05:50:46;;;;;;;17.33;10.80;;;13.90;99.90;;;;;;5221061;28;20195;-47
2022/07/23 05:53:17;;;;;;;18.80;9.17;;;13.90;99.90;;;;;;5226083;28;20229;-47
2022/07/23 05:55:47;;;;;;;19.17;9.90;;;13.90;99.90;;;;;;5198327;28;20810;-47
2022/07/23 05:58:18;;;;;;;14.60;9.63;;;13.90;99.90;;;;;;5217454;28;20192;-47
2022/07/23 06:00:49;;;;;;;15.17;9.80;;;13.90;99.90;;;;;;5213644;28;20179;-48
2022/07/23 06:03:19;;;;;;;17.70;10.03;;;13.90;99.90;;;;;;5196736;28;20285;-48
2022/07/23 06:05:50;;;;;;;24.20;11.60;;;13.90;99.90;;;;;;5203387;28;20541;-47
2022/07/23 06:08:21;;;;;;;9.47;8.57;;;13.80;99.90;;;;;;5212034;28;20183;-47
2022/07/23 06:10:51;;;;;;;13.50;8.80;;;13.80;99.90;;;;;;5222850;28;20697;-47
2022/07/23 06:13:22;;;;;;;12.33;9.20;;;13.90;99.90;;;;;;5216089;28;20210;-47
2022/07/23 06:15:52;;;;;;;22.07;9.27;;;14.00;99.90;;;;;;5222429;28;20212;-46
2022/07/23 06:18:23;;;;;;;7.90;7.13;;;14.00;99.90;;;;;;5220181;28;20324;-47
2022/07/23 06:20:54;;;;;;;19.93;11.90;;;14.00;99.90;;;;;;5207067;28;20640;-47
2022/07/23 06:23:25;;;;;;;16.33;11.30;;;14.10;99.90;;;;;;5207341;28;20179;-47
2022/07/23 06:25:55;;;;;;;23.13;11.20;;;14.00;99.90;;;;;;5208059;28;20484;-47
2022/07/23 06:28:26;;;;;;;32.50;15.07;;;14.00;99.90;;;;;;5197129;28;20183;-48
2022/07/23 06:30:56;;;;;;;33.10;12.70;;;14.10;99.90;;;;;;5199387;28;20175;-48
2022/07/23 06:33:27;;;;;;;20.93;12.97;;;14.10;99.90;;;;;;5221708;28;20751;-48
2022/07/23 06:35:58;;;;;;;16.27;11.30;;;14.20;99.90;;;;;;5205499;28;20687;-48
2022/07/23 06:38:28;;;;;;;20.53;11.10;;;14.10;99.90;;;;;;5206542;28;20187;-50
2022/07/23 06:40:59;;;;;;;28.07;14.13;;;14.00;99.90;;;;;;5215302;28;20171;-48
2022/07/23 06:43:31;;;;;;;29.10;15.13;;;14.00;99.90;;;;;;5205784;28;20259;-49
2022/07/23 06:46:01;;;;;;;21.57;12.30;;;14.00;99.90;;;;;;5198532;28;20202;-48
2022/07/23 06:48:34;;;;;;;19.73;13.63;;;14.00;99.90;;;;;;5197647;28;20449;-48
2022/07/23 06:51:04;;;;;;;17.70;11.10;;;14.10;99.90;;;;;;5199178;28;20267;-49
2022/07/23 06:53:35;;;;;;;19.73;13.80;;;14.30;99.90;;;;;;5219765;28;20484;-49
2022/07/23 06:56:06;;;;;;;14.80;10.27;;;14.40;99.90;;;;;;5199433;28;20207;-46
2022/07/23 06:58:36;;;;;;;16.40;10.90;;;14.60;99.90;;;;;;5199571;28;20193;-48
2022/07/23 07:01:07;;;;;;;18.43;10.70;;;14.70;99.90;;;;;;5214754;28;20198;-48
2022/07/23 07:03:37;;;;;;;20.30;10.73;;;14.80;99.90;;;;;;5202629;28;20197;-47
2022/07/23 07:06:08;;;;;;;11.43;7.90;;;14.80;99.90;;;;;;5216518;28;20702;-48
2022/07/23 07:08:39;;;;;;;17.47;10.30;;;14.80;99.90;;;;;;5223492;28;20563;-49
2022/07/23 07:11:10;;;;;;;21.97;9.50;;;14.80;99.90;;;;;;5217571;28;20601;-50
2022/07/23 07:13:41;;;;;;;11.20;8.70;;;14.70;99.90;;;;;;5206781;28;20206;-49
2022/07/23 07:16:11;;;;;;;13.17;8.60;;;14.60;99.90;;;;;;5214273;28;20579;-48
2022/07/23 07:18:42;;;;;;;12.50;9.03;;;14.70;99.90;;;;;;5201838;28;20620;-48
2022/07/23 07:21:13;;;;;;;10.50;8.53;;;14.90;99.90;;;;;;5217457;28;20183;-48
2022/07/23 07:23:43;;;;;;;12.03;8.30;;;15.10;99.90;;;;;;5198546;28;20305;-47
2022/07/23 07:26:14;;;;;;;10.27;8.50;;;15.40;99.90;;;;;;5199535;28;20199;-48
2022/07/23 07:28:44;;;;;;;14.63;7.80;;;15.60;99.90;;;;;;5202430;28;20558;-47
2022/07/23 07:31:15;;;;;;;10.97;7.63;;;15.80;99.90;;;;;;5212473;28;20516;-49
2022/07/23 07:33:46;;;;;;;10.27;7.40;;;15.80;99.90;;;;;;5197433;28;20546;-51
2022/07/23 07:36:16;;;;;;;10.10;5.80;;;15.90;99.90;;;;;;5204372;28;20199;-48
2022/07/23 07:38:47;;;;;;;7.23;5.77;;;15.90;99.90;;;;;;5213805;28;20673;-48
2022/07/23 07:41:22;;;;;;;8.53;6.37;;;15.80;99.90;;;;;;5220234;28;20249;-49
2022/07/23 07:43:53;;;;;;;10.57;6.80;;;15.90;99.90;;;;;;5212136;28;20245;-48
2022/07/23 07:46:24;;;;;;;15.33;7.03;;;16.00;99.90;;;;;;5217277;28;20457;-49
2022/07/23 07:48:54;;;;;;;12.50;7.47;;;16.10;99.90;;;;;;5199925;28;20180;-48
2022/07/23 07:51:26;;;;;;;10.27;7.47;;;16.40;99.90;;;;;;5206172;28;20190;-48
2022/07/23 07:53:57;;;;;;;7.50;6.50;;;16.60;99.90;;;;;;5210282;28;20191;-47
2022/07/23 07:56:27;;;;;;;10.80;6.47;;;16.50;99.90;;;;;;5221162;28;21010;-47
2022/07/23 07:58:58;;;;;;;7.77;6.07;;;16.50;99.90;;;;;;5199243;28;20191;-47
2022/07/23 08:01:28;;;;;;;7.30;6.60;;;16.50;99.90;;;;;;5205152;28;20646;-47
2022/07/23 08:03:59;;;;;;;25.00;12.83;;;16.40;99.90;;;;;;5184837;28;20176;-48
2022/07/23 08:06:29;;;;;;;14.13;9.77;;;16.40;99.90;;;;;;5197614;28;20200;-46
2022/07/23 08:09:00;;;;;;;7.60;6.90;;;17.80;99.90;;;;;;5217737;28;20171;-46
2022/07/23 08:11:31;;;;;;;4.77;4.37;;;19.40;99.90;;;;;;5214281;28;20187;-47
2022/07/23 08:14:01;;;;;;;4.50;4.10;;;19.10;99.90;;;;;;5201290;28;20641;-49
2022/07/23 08:16:32;;;;;;;8.97;5.97;;;19.60;99.90;;;;;;5210370;28;20207;-45
2022/07/23 08:19:02;;;;;;;8.33;4.07;;;21.10;99.90;;;;;;5215097;28;20234;-46
2022/07/23 08:21:33;;;;;;;5.53;4.83;;;22.60;99.90;;;;;;5211778;28;20186;-49
2022/07/23 08:24:04;;;;;;;6.27;4.07;;;23.30;99.90;;;;;;5209515;28;20640;-46
2022/07/23 08:26:34;;;;;;;8.00;3.90;;;25.00;99.90;;;;;;5192126;28;20583;-45
2022/07/23 08:29:05;;;;;;;4.30;3.43;;;25.10;99.90;;;;;;5218263;28;20302;-47
2022/07/23 08:31:36;;;;;;;3.70;2.93;;;24.10;99.90;;;;;;5219545;28;20197;-45
2022/07/23 08:34:06;;;;;;;10.20;3.30;;;23.00;99.90;;;;;;5220117;28;20179;-46
2022/07/23 08:36:37;;;;;;;6.10;3.60;;;23.50;99.90;;;;;;5205558;28;20647;-47
2022/07/23 08:39:08;;;;;;;2.40;2.23;;;24.90;99.90;;;;;;5198438;28;20171;-46
2022/07/23 08:41:41;;;;;;;3.40;2.70;;;25.40;99.90;;;;;;5213316;28;20581;-49
2022/07/23 08:44:12;;;;;;;1.93;1.83;;;25.40;99.90;;;;;;5214750;28;20436;-46
2022/07/23 08:46:44;;;;;;;2.90;2.30;;;25.80;99.90;;;;;;5212049;28;20441;-45
2022/07/23 08:49:15;;;;;;;3.57;2.00;;;26.40;99.10;;;;;;5219071;28;20917;-46
2022/07/23 08:51:46;;;;;;;1.80;1.70;;;27.50;93.70;;;;;;5218018;28;20502;-47
2022/07/23 08:54:17;;;;;;;4.10;2.50;;;28.10;84.40;;;;;;5221764;28;20186;-46
2022/07/23 08:56:49;;;;;;;7.63;2.17;;;27.70;72.50;;;;;;5202279;28;20445;-47
2022/07/23 08:59:19;;;;;;;3.97;2.40;;;26.60;71.80;;;;;;5222422;28;20461;-46
2022/07/23 09:01:50;;;;;;;2.30;1.50;;;25.40;77.20;;;;;;5202459;28;20429;-49
2022/07/23 09:04:21;;;;;;;3.57;1.80;;;24.30;77.40;;;;;;5223529;28;20191;-45
2022/07/23 09:06:52;;;;;;;4.73;1.70;;;23.60;81.90;;;;;;5198977;28;20425;-47
2022/07/23 09:09:23;;;;;;;6.93;2.00;;;22.90;79.30;;;;;;5222579;28;20195;-47
2022/07/23 09:12:05;;;;;;;5.47;2.53;;;22.60;85.50;;;;;;5202431;28;20195;-47
2022/07/23 09:14:37;;;;;;;2.30;2.10;;;22.20;84.80;;;;;;5204436;28;20821;-44
2022/07/23 09:17:17;;;;;;;5.80;2.27;;;22.40;89.00;;;;;;5203619;28;20444;-45
2022/07/23 09:19:48;;;;;;;15.50;3.03;;;22.50;87.00;;;;;;5217739;28;20812;-46
2022/07/23 09:22:26;;;;;;;5.20;2.53;;;22.80;86.20;;;;;;5204427;28;20437;-46
2022/07/23 09:25:10;;;;;;;2.50;2.30;;;23.00;87.00;;;;;;5217929;28;20202;-46
2022/07/23 09:28:02;;;;;;;15.87;3.23;;;23.10;84.00;;;;;;5185746;28;20965;-47
2022/07/23 09:30:34;;;;;;;7.10;2.60;;;22.70;83.90;;;;;;5211272;28;21480;-46
2022/07/23 09:33:07;;;;;;;3.17;2.73;;;22.70;85.20;;;;;;5201580;28;20485;-46
2022/07/23 09:35:53;;;;;;;7.60;2.97;;;22.60;83.00;;;;;;5202427;28;20855;-46
2022/07/23 09:38:25;;;;;;;3.67;2.60;;;22.50;84.00;;;;;;5215187;28;20437;-47
2022/07/23 09:41:09;;;;;;;3.90;2.53;;;22.70;85.10;;;;;;5215584;28;20861;-51
2022/07/23 09:43:40;;;;;;;4.10;3.40;;;23.10;84.20;;;;;;5201903;28;20449;-45
2022/07/23 09:46:26;;;;;;;3.63;2.80;;;23.20;79.80;;;;;;5217130;28;20461;-47
2022/07/23 09:48:56;;;;;;;3.10;2.90;;;22.90;80.60;;;;;;5200894;28;20210;-47
2022/07/23 09:51:34;;;;;;;7.30;2.40;;;22.90;81.20;;;;;;5218906;28;20437;-47
2022/07/23 09:54:05;;;;;;;6.30;3.30;;;23.00;82.90;;;;;;5221723;28;20203;-49
2022/07/23 09:56:37;;;;;;;4.17;3.03;;;23.00;80.30;;;;;;5216554;28;20526;-47
2022/07/23 09:59:11;;;;;;;7.20;3.00;;;22.50;81.70;;;;;;5216197;28;20198;-45
2022/07/23 10:01:43;;;;;;;3.03;2.80;;;22.60;82.90;;;;;;5200106;28;20519;-47
2022/07/23 10:04:14;;;;;;;3.03;2.73;;;22.80;82.20;;;;;;5207249;28;20457;-49
2022/07/23 10:06:46;;;;;;;3.13;2.93;;;23.10;80.70;;;;;;5205603;28;20973;-47
2022/07/23 10:09:27;;;;;;;11.43;3.67;;;23.20;77.60;;;;;;5220349;28;20437;-46
2022/07/23 10:12:17;;;;;;;8.83;3.10;;;22.80;76.60;;;;;;5203113;28;20563;-47
2022/07/23 10:14:47;;;;;;;4.20;2.97;;;22.40;77.40;;;;;;5221153;28;20953;-47
2022/07/23 10:17:18;;;;;;;8.20;5.70;;;22.50;79.50;;;;;;5207400;28;20463;-47
2022/07/23 10:19:49;;;;;;;5.40;4.40;;;22.30;78.30;;;;;;5226659;28;20237;-45
2022/07/23 10:22:23;;;;;;;9.13;3.00;;;22.40;80.20;;;;;;5222510;28;20179;-49
2022/07/23 10:25:25;;;;;;;2.80;2.40;;;22.20;79.90;;;;;;5210268;28;20571;-46
2022/07/23 10:28:12;;;;;;;3.10;2.40;;;22.40;82.20;;;;;;5201378;28;20524;-46
2022/07/23 10:31:07;;;;;;;6.60;3.80;;;23.10;79.60;;;;;;5207634;28;20441;-46
2022/07/23 10:33:56;;;;;;;5.53;3.17;;;23.30;77.90;;;;;;5200122;28;20564;-46
2022/07/23 10:36:49;;;;;;;3.00;2.43;;;23.00;76.70;;;;;;5206949;28;20491;-53
2022/07/23 10:39:26;;;;;;;2.33;2.23;;;22.90;74.90;;;;;;5216713;28;20456;-46
2022/07/23 10:42:15;;;;;;;2.73;2.43;;;22.70;75.50;;;;;;5200852;28;20465;-48
2022/07/23 10:44:47;;;;;;;9.73;2.57;;;22.60;74.70;;;;;;5214791;28;20948;-45
2022/07/23 10:47:41;;;;;;;16.97;4.73;;;22.50;76.30;;;;;;5211719;28;20437;-48
2022/07/23 10:50:34;;;;;;;3.43;3.13;;;22.20;74.90;;;;;;5217597;28;20429;-47
2022/07/23 10:53:16;;;;;;;4.40;3.10;;;22.30;76.30;;;;;;5201379;28;21057;-47
2022/07/23 10:55:52;;;;;;;2.80;2.60;;;22.40;75.80;;;;;;5196476;28;20984;-46
2022/07/23 10:58:44;;;;;;;2.33;2.13;;;22.30;77.00;;;;;;5199630;28;20521;-45
2022/07/23 11:01:37;;;;;;;2.93;2.73;;;22.20;77.60;;;;;;5212719;28;20495;-47
2022/07/23 11:04:08;;;;;;;4.37;2.87;;;22.60;76.80;;;;;;5205753;28;20448;-47
2022/07/23 11:06:48;;;;;;;2.50;2.30;;;22.60;76.00;;;;;;5198879;28;20478;-47
2022/07/23 11:09:39;;;;;;;3.23;1.97;;;22.80;77.20;;;;;;5216826;28;20180;-46
2022/07/23 11:12:27;;;;;;;2.97;2.77;;;23.20;76.10;;;;;;5220485;28;20496;-46
2022/07/23 11:15:06;;;;;;;3.00;2.73;;;23.70;74.90;;;;;;5215207;28;20453;-47
2022/07/23 11:18:00;;;;;;;2.43;2.23;;;23.80;72.00;;;;;;5221249;28;20520;-50
2022/07/23 11:20:30;;;;;;;5.07;2.40;;;23.30;70.80;;;;;;5200046;28;20437;-48
2022/07/23 11:23:03;;;;;;;3.87;2.90;;;23.30;72.50;;;;;;5212621;28;20885;-46
2022/07/23 11:25:35;;;;;;;3.37;2.30;;;23.20;71.30;;;;;;5219975;28;20210;-46
2022/07/23 11:28:16;;;;;;;4.10;2.77;;;23.00;72.80;;;;;;5217523;28;20457;-46
2022/07/23 11:30:47;;;;;;;2.50;2.40;;;23.00;72.60;;;;;;5214360;28;20430;-47
2022/07/23 11:33:20;;;;;;;7.03;3.30;;;23.10;73.40;;;;;;5198911;28;21027;-47
2022/07/23 11:36:03;;;;;;;3.47;3.20;;;23.30;72.70;;;;;;5211713;28;20540;-48
2022/07/23 11:38:34;;;;;;;3.00;2.80;;;23.30;72.30;;;;;;5210250;28;20467;-46
2022/07/23 11:41:05;;;;;;;7.93;3.53;;;23.30;71.40;;;;;;5201145;28;20468;-47
2022/07/23 11:43:37;;;;;;;8.90;5.87;;;23.10;72.80;;;;;;5199398;28;20462;-47
2022/07/23 11:46:10;;;;;;;3.87;3.57;;;23.00;73.60;;;;;;5215740;28;20201;-46
2022/07/23 11:48:42;;;;;;;13.40;4.37;;;22.90;74.10;;;;;;5212132;28;20425;-51
2022/07/23 11:51:26;;;;;;;3.27;3.10;;;23.00;73.20;;;;;;5218903;28;20442;-46
2022/07/23 11:54:06;;;;;;;2.57;2.47;;;22.80;72.30;;;;;;5214165;28;20531;-47
2022/07/23 11:56:37;;;;;;;5.20;2.87;;;22.60;74.40;;;;;;5200111;28;20817;-47
2022/07/23 11:59:08;;;;;;;4.50;3.00;;;22.70;74.80;;;;;;5199159;28;20454;-46
2022/07/23 12:02:04;;;;;;;6.10;3.10;;;22.80;74.50;;;;;;5207653;28;20888;-47
2022/07/23 12:04:43;;;;;;;6.80;3.50;;;23.10;74.80;;;;;;5207051;28;20458;-48
2022/07/23 12:07:37;;;;;;;2.60;2.50;;;23.40;72.40;;;;;;5220128;28;20437;-45
2022/07/23 12:10:13;;;;;;;2.27;2.17;;;23.60;71.60;;;;;;5216241;28;21004;-46
2022/07/23 12:12:53;;;;;;;8.93;4.53;;;24.00;71.60;;;;;;5214093;28;20472;-47
2022/07/23 12:15:26;;;;;;;5.23;3.40;;;24.10;69.60;;;;;;5213566;28;20457;-46
2022/07/23 12:17:58;;;;;;;11.87;5.37;;;24.20;69.00;;;;;;5219457;28;20444;-47
2022/07/23 12:20:31;;;;;;;4.87;3.10;;;24.20;68.20;;;;;;5219133;28;20449;-47
2022/07/23 12:23:05;;;;;;;3.40;3.20;;;24.20;68.10;;;;;;5205162;28;20532;-48
2022/07/23 12:25:38;;;;;;;3.50;3.30;;;24.50;69.10;;;;;;5220174;28;20454;-46
2022/07/23 12:28:37;;;;;;;4.70;3.40;;;24.80;66.90;;;;;;5220435;28;20496;-45
2022/07/23 12:31:08;;;;;;;7.83;3.37;;;25.00;65.10;;;;;;5199451;28;20455;-48
2022/07/23 12:33:39;;;;;;;5.03;2.80;;;25.10;63.00;;;;;;5195568;28;20529;-45
2022/07/23 12:36:11;;;;;;;3.30;2.90;;;25.20;63.00;;;;;;5207230;28;20210;-45
2022/07/23 12:38:46;;;;;;;5.17;3.20;;;24.90;62.30;;;;;;5209505;28;20425;-48
2022/07/23 12:41:17;;;;;;;4.17;2.60;;;24.50;63.90;;;;;;5209493;28;20433;-45
2022/07/23 12:43:47;;;;;;;3.60;3.30;;;24.30;64.00;;;;;;5200801;28;20497;-44
2022/07/23 12:46:22;;;;;;;3.20;3.00;;;23.90;63.50;;;;;;5206487;28;20199;-47
2022/07/23 12:48:54;;;;;;;3.40;3.10;;;23.70;64.60;;;;;;5208368;28;20178;-48
2022/07/23 12:51:32;;;;;;;3.73;3.53;;;23.50;64.80;;;;;;5198435;28;20803;-46
2022/07/23 12:54:08;;;;;;;5.77;3.87;;;23.30;65.50;;;;;;5221025;28;20465;-47
2022/07/23 12:56:43;;;;;;;3.13;2.90;;;23.50;66.40;;;;;;5223484;28;20505;-48
2022/07/23 12:59:16;;;;;;;5.93;3.67;;;23.50;65.60;;;;;;5201779;28;20445;-46
2022/07/23 13:01:58;;;;;;;3.63;3.33;;;23.60;65.40;;;;;;5203155;28;20429;-44
2022/07/23 13:04:31;;;;;;;3.20;2.90;;;23.90;65.40;;;;;;5220327;28;20792;-48
2022/07/23 13:07:02;;;;;;;2.97;2.73;;;24.00;63.80;;;;;;5203879;28;20762;-47
2022/07/23 13:09:34;;;;;;;3.90;2.80;;;24.30;65.00;;;;;;5221923;28;20430;-45
2022/07/23 13:12:04;;;;;;;4.33;3.10;;;24.50;63.90;;;;;;5224171;28;20465;-45
2022/07/23 13:14:35;;;;;;;3.30;2.77;;;24.50;62.40;;;;;;5203617;28;20514;-45